Winslow, Texas
Current Conditions -  °F | °C
As of 1:55 AM on Saturday 20 Dec 2014 (Local Time) from KINJ Reporting Station
Haze Haze  
Wind Chill: 45°   Ceiling: 500
Heat Index: 48°   Visibility: 4mi
Dew Point: 45°   Wind: 6mph
Humidity: 90%   Direction: 340°NNW
Pressure: 30.19"   Gusts: NA
Location:  32.0499°N, 97.1039°W
Report Text: KINJ 200755Z AUTO 34005KT 4SM BR OVC005 09/07 A3019 RMK AO2 T00870072
Loading
Personal Weather Stations






























Interactive Weather Map New forecast layout! Learn more

10-Day Weather Forecast

Advertisements
Track Severe Weather on mobile